createdAt,value
2023-12-09T00:01:54.235Z,25.33
2023-12-09T00:04:56.300Z,27.90
2023-12-09T00:07:58.517Z,19.85
2023-12-09T00:11:00.694Z,26.27
2023-12-09T00:14:05.394Z,21.23
2023-12-09T00:17:07.830Z,27.65
2023-12-09T00:20:10.381Z,23.30
2023-12-09T00:23:12.479Z,27.08
2023-12-09T00:26:14.708Z,25.05
2023-12-09T00:29:17.190Z,27.05
2023-12-09T00:32:19.479Z,27.30
2023-12-09T00:35:21.823Z,22.45
2023-12-09T00:38:24.290Z,23.83
2023-12-09T00:41:26.341Z,24.05
2023-12-09T00:44:28.577Z,20.55
2023-12-09T00:47:30.696Z,22.98
2023-12-09T00:50:32.914Z,25.45
2023-12-09T00:53:34.944Z,22.27
2023-12-09T00:56:36.969Z,25.75
2023-12-09T00:59:39.014Z,21.25
2023-12-09T01:02:41.562Z,25.55
2023-12-09T01:05:44.043Z,23.25
2023-12-09T01:08:46.385Z,19.67
2023-12-09T01:11:48.515Z,25.20
2023-12-09T01:14:50.744Z,22.27
2023-12-09T01:17:53.028Z,30.52
2023-12-09T01:20:55.081Z,28.38
2023-12-09T01:23:57.299Z,27.23
2023-12-09T01:26:59.607Z,27.77
2023-12-09T01:30:01.848Z,25.48
2023-12-09T01:33:04.355Z,34.15
2023-12-09T01:36:06.785Z,25.75
2023-12-09T01:39:10.462Z,23.17
2023-12-09T01:42:12.815Z,24.70
2023-12-09T01:45:15.182Z,27.35
2023-12-09T01:48:17.627Z,24.23
2023-12-09T01:51:20.032Z,27.67
2023-12-09T01:54:22.316Z,19.20
2023-12-09T01:57:25.222Z,21.10
2023-12-09T02:00:27.677Z,24.42
2023-12-09T02:03:32.516Z,20.27
2023-12-09T02:06:34.884Z,26.20
2023-12-09T02:09:40.750Z,21.92
2023-12-09T02:12:56.472Z,24.10
2023-12-09T02:16:23.517Z,31.08
2023-12-09T02:19:27.187Z,32.33
2023-12-09T02:22:29.972Z,26.50
2023-12-09T02:25:33.059Z,34.35
2023-12-09T02:28:41.383Z,21.95
2023-12-09T02:31:45.134Z,26.63
2023-12-09T02:34:49.197Z,23.60
2023-12-09T02:37:53.423Z,19.85
2023-12-09T02:40:56.513Z,23.38
2023-12-09T02:43:59.216Z,24.15
2023-12-09T02:47:01.266Z,21.13
2023-12-09T02:50:03.820Z,27.67
2023-12-09T02:53:06.015Z,26.98
2023-12-09T02:56:08.567Z,30.27
2023-12-09T02:59:10.683Z,28.17
2023-12-09T03:02:12.769Z,29.23
2023-12-09T03:05:15.104Z,30.15
2023-12-09T03:08:17.227Z,29.48
2023-12-09T03:11:19.908Z,34.45
2023-12-09T03:14:23.735Z,29.00
2023-12-09T03:17:26.013Z,24.52
2023-12-09T03:20:28.226Z,19.45
2023-12-09T03:23:30.298Z,22.15
2023-12-09T03:26:32.862Z,33.47
2023-12-09T03:29:36.959Z,28.20
2023-12-09T03:32:39.929Z,22.17
2023-12-09T03:35:43.115Z,21.50
2023-12-09T03:38:45.383Z,19.60
2023-12-09T03:41:47.474Z,26.13
2023-12-09T03:44:49.737Z,26.83
2023-12-09T03:47:52.240Z,24.30
2023-12-09T03:50:54.445Z,26.45
2023-12-09T03:53:56.504Z,25.70
2023-12-09T03:56:58.963Z,27.40
2023-12-09T04:00:01.284Z,29.73
2023-12-09T04:03:04.252Z,33.33
2023-12-09T04:06:06.696Z,30.27
2023-12-09T04:09:10.861Z,33.45
2023-12-09T04:12:13.023Z,39.05
2023-12-09T04:15:15.249Z,38.88
2023-12-09T04:18:18.672Z,37.97
2023-12-09T04:21:21.695Z,32.10
2023-12-09T04:24:24.573Z,35.90
2023-12-09T04:27:26.701Z,32.30
2023-12-09T04:30:29.697Z,29.77
2023-12-09T04:33:32.008Z,30.90
2023-12-09T04:36:34.444Z,36.80
2023-12-09T04:39:36.817Z,26.17
2023-12-09T04:42:39.817Z,30.75
2023-12-09T04:45:41.998Z,33.10
2023-12-09T04:48:44.876Z,25.48
2023-12-09T04:51:47.222Z,29.13
2023-12-09T04:54:49.516Z,31.20
2023-12-09T04:57:51.720Z,21.80
2023-12-09T05:00:53.899Z,27.75
2023-12-09T05:03:56.132Z,24.73
2023-12-09T05:06:58.453Z,30.23
2023-12-09T05:10:00.737Z,30.45
2023-12-09T05:13:02.790Z,28.52
2023-12-09T05:16:05.302Z,31.75
2023-12-09T05:19:08.151Z,34.35
2023-12-09T05:22:10.300Z,34.67
2023-12-09T05:25:12.521Z,33.53
2023-12-09T05:28:14.617Z,35.33
2023-12-09T05:31:16.791Z,32.45
2023-12-09T05:34:19.151Z,38.85
2023-12-09T05:37:21.617Z,31.33
2023-12-09T05:40:23.653Z,34.35
2023-12-09T05:43:25.760Z,26.75
2023-12-09T05:46:28.189Z,30.90
2023-12-09T05:49:30.528Z,35.08
2023-12-09T05:52:32.680Z,29.23
2023-12-09T05:55:34.831Z,32.63
2023-12-09T05:58:36.905Z,30.95
2023-12-09T06:01:39.075Z,38.25
2023-12-09T06:04:41.211Z,39.78
2023-12-09T06:07:43.415Z,36.03
2023-12-09T06:10:45.550Z,34.53
2023-12-09T06:13:47.649Z,32.03
2023-12-09T06:16:49.876Z,37.15
2023-12-09T06:19:52.359Z,29.77
2023-12-09T06:22:54.561Z,33.85
2023-12-09T06:25:56.550Z,27.60
2023-12-09T06:28:58.662Z,29.67
2023-12-09T06:32:02.983Z,40.33
2023-12-09T06:35:05.563Z,35.58
2023-12-09T06:38:08.153Z,48.30
2023-12-09T06:41:10.239Z,37.92
2023-12-09T06:44:13.539Z,40.20
2023-12-09T06:47:15.637Z,41.20
2023-12-09T06:50:17.965Z,35.50
2023-12-09T06:53:20.044Z,44.83
2023-12-09T06:56:22.945Z,37.17
2023-12-09T06:59:25.182Z,46.05
2023-12-09T07:02:34.685Z,41.53
2023-12-09T07:05:43.322Z,31.10
2023-12-09T07:08:46.192Z,30.73
2023-12-09T07:11:48.296Z,30.45
2023-12-09T07:15:06.705Z,41.47
2023-12-09T07:18:08.933Z,42.45
2023-12-09T07:21:11.573Z,42.22
2023-12-09T07:24:14.177Z,40.05
2023-12-09T07:27:16.210Z,36.17
2023-12-09T07:30:18.419Z,38.08
2023-12-09T07:33:20.673Z,52.25
2023-12-09T07:36:23.012Z,37.53
2023-12-09T07:39:25.285Z,43.38
2023-12-09T07:42:27.835Z,39.08
2023-12-09T07:45:30.206Z,42.35
2023-12-09T07:48:32.877Z,33.17
2023-12-09T07:51:37.289Z,27.63
2023-12-09T07:54:39.453Z,23.15
2023-12-09T07:57:41.646Z,29.02
2023-12-09T08:00:43.801Z,27.15
2023-12-09T08:03:46.350Z,42.10
2023-12-09T08:06:48.578Z,26.48
2023-12-09T08:09:50.767Z,29.77
2023-12-09T08:12:52.907Z,40.53
2023-12-09T08:15:55.042Z,34.15
2023-12-09T08:18:57.300Z,34.70
2023-12-09T08:22:00.669Z,35.30
2023-12-09T08:25:02.937Z,30.88
2023-12-09T08:28:07.096Z,44.55
2023-12-09T08:31:09.487Z,35.33
2023-12-09T08:34:11.642Z,37.15
2023-12-09T08:37:14.022Z,40.15
2023-12-09T08:40:16.384Z,38.40
2023-12-09T08:43:18.483Z,35.95
2023-12-09T08:46:20.532Z,37.65
2023-12-09T08:49:22.762Z,31.33
2023-12-09T08:52:25.216Z,37.92
2023-12-09T08:55:27.496Z,27.70
2023-12-09T08:58:29.873Z,61.95
2023-12-09T09:01:31.921Z,33.42
2023-12-09T09:04:34.790Z,31.83
2023-12-09T09:07:41.430Z,35.90
2023-12-09T09:10:43.665Z,32.78
2023-12-09T09:13:45.849Z,41.75
2023-12-09T09:16:48.451Z,32.67
2023-12-09T09:19:50.702Z,35.10
2023-12-09T09:22:52.931Z,34.30
2023-12-09T09:25:55.046Z,28.08
2023-12-09T09:28:57.763Z,36.08
2023-12-09T09:31:59.904Z,34.40
2023-12-09T09:35:02.120Z,27.75
2023-12-09T09:38:04.235Z,32.97
2023-12-09T09:41:10.715Z,29.65
2023-12-09T09:44:18.695Z,26.27
2023-12-09T09:47:22.406Z,21.23
2023-12-09T09:50:26.553Z,21.23
2023-12-09T09:53:41.070Z,36.15
2023-12-09T09:56:44.269Z,27.10
2023-12-09T09:59:46.774Z,28.38
2023-12-09T10:02:54.634Z,21.13
2023-12-09T10:05:59.646Z,34.38
2023-12-09T10:09:02.108Z,36.88
2023-12-09T10:12:04.645Z,34.90
2023-12-09T10:15:08.355Z,26.67
2023-12-09T10:18:14.942Z,40.53
2023-12-09T10:21:17.455Z,40.67
2023-12-09T10:24:19.699Z,47.53
2023-12-09T10:27:23.937Z,32.17
2023-12-09T10:30:26.552Z,40.15
2023-12-09T10:33:34.438Z,34.63
2023-12-09T10:36:37.026Z,38.28
2023-12-09T10:39:46.426Z,35.85
2023-12-09T10:42:49.895Z,44.58
2023-12-09T10:45:52.049Z,40.78
2023-12-09T10:48:55.338Z,37.90
2023-12-09T10:51:57.621Z,40.38
2023-12-09T10:55:00.095Z,42.15
2023-12-09T10:58:05.617Z,38.55
2023-12-09T11:01:08.636Z,46.38
2023-12-09T11:04:11.226Z,55.45
2023-12-09T11:07:13.946Z,31.77
2023-12-09T11:10:16.975Z,45.67
2023-12-09T11:13:20.258Z,65.57
2023-12-09T11:16:22.657Z,35.30
2023-12-09T11:19:26.227Z,30.08
2023-12-09T11:22:29.935Z,37.88
2023-12-09T11:25:32.178Z,41.90
2023-12-09T11:28:34.297Z,38.90
2023-12-09T11:31:44.244Z,38.05
2023-12-09T11:34:46.565Z,36.22
2023-12-09T11:37:50.481Z,34.63
2023-12-09T11:40:53.426Z,42.20
2023-12-09T11:43:57.106Z,34.08
2023-12-09T11:46:59.546Z,42.38
2023-12-09T11:50:02.541Z,38.13
2023-12-09T11:53:04.678Z,54.85
2023-12-09T11:56:07.784Z,45.92
2023-12-09T11:59:09.942Z,47.42
2023-12-09T12:02:12.053Z,51.10
2023-12-09T12:05:14.380Z,43.92
2023-12-09T12:08:17.342Z,34.45
2023-12-09T12:11:23.311Z,40.30
2023-12-09T12:14:26.893Z,38.35
2023-12-09T12:17:37.256Z,46.55
2023-12-09T12:20:39.472Z,26.25
2023-12-09T12:23:41.548Z,41.60
2023-12-09T12:26:43.706Z,43.40
2023-12-09T12:29:45.830Z,36.28
2023-12-09T12:32:57.053Z,33.50
2023-12-09T12:36:03.040Z,37.80
2023-12-09T12:39:07.420Z,34.05
2023-12-09T12:42:09.880Z,35.10
2023-12-09T12:45:19.315Z,35.03
2023-12-09T12:48:22.189Z,42.20
2023-12-09T12:51:26.962Z,30.27
2023-12-09T12:54:29.251Z,32.45
2023-12-09T12:57:32.757Z,35.85
2023-12-09T13:00:34.932Z,30.13
2023-12-09T13:03:37.226Z,60.05
2023-12-09T13:06:39.442Z,37.38
2023-12-09T13:09:41.704Z,34.80
2023-12-09T13:12:44.055Z,32.60
2023-12-09T13:15:46.552Z,38.40
2023-12-09T13:18:49.580Z,33.80
2023-12-09T13:21:51.782Z,38.67
2023-12-09T13:24:54.130Z,43.08
2023-12-09T13:27:56.594Z,33.65
2023-12-09T13:30:59.109Z,43.28
2023-12-09T13:34:01.479Z,32.28
2023-12-09T13:37:04.648Z,33.25
2023-12-09T13:40:09.144Z,35.92
2023-12-09T13:43:11.385Z,32.97
2023-12-09T13:46:14.861Z,37.60
2023-12-09T13:49:17.101Z,38.22
2023-12-09T13:52:19.354Z,29.83
2023-12-09T13:55:22.274Z,34.03
2023-12-09T13:58:24.407Z,26.70
2023-12-09T14:01:26.690Z,29.27
2023-12-09T14:04:29.317Z,27.38
2023-12-09T14:07:32.074Z,22.73
2023-12-09T14:10:34.270Z,27.55
2023-12-09T14:13:36.926Z,28.83
2023-12-09T14:16:39.115Z,33.80
2023-12-09T14:19:41.634Z,26.65
2023-12-09T14:22:46.239Z,26.60
2023-12-09T14:25:48.428Z,25.75
2023-12-09T14:28:50.979Z,33.13
2023-12-09T14:31:53.134Z,25.73
2023-12-09T14:34:55.683Z,26.95
2023-12-09T14:37:58.219Z,34.10
2023-12-09T14:41:00.439Z,29.95
2023-12-09T14:44:07.982Z,28.77
2023-12-09T14:50:14.225Z,32.08
2023-12-09T14:53:18.737Z,45.67
2023-12-09T14:56:20.879Z,36.00
2023-12-09T14:59:23.515Z,37.15
2023-12-09T15:02:26.039Z,37.70
2023-12-09T15:05:28.439Z,35.08
2023-12-09T15:08:30.769Z,32.10
2023-12-09T15:11:32.835Z,34.13
2023-12-09T15:14:35.091Z,39.40
2023-12-09T15:17:38.728Z,25.52
2023-12-09T15:20:41.128Z,39.70
2023-12-09T15:23:43.410Z,31.95
2023-12-09T15:26:45.578Z,37.60
2023-12-09T15:29:48.823Z,34.20
2023-12-09T15:32:51.045Z,31.73
2023-12-09T15:35:55.985Z,52.67
2023-12-09T15:38:58.189Z,44.67
2023-12-09T15:42:00.598Z,55.70
2023-12-09T15:45:04.189Z,34.28
2023-12-09T15:48:06.769Z,38.58
2023-12-09T15:51:09.191Z,51.00
2023-12-09T15:54:11.330Z,44.38
2023-12-09T15:57:15.080Z,45.08
2023-12-09T16:00:17.587Z,40.60
2023-12-09T16:03:20.513Z,36.90
2023-12-09T16:06:25.004Z,35.67
2023-12-09T16:09:27.326Z,39.75
2023-12-09T16:12:29.800Z,42.88
2023-12-09T16:15:32.194Z,42.30
2023-12-09T16:18:34.552Z,39.42
2023-12-09T16:21:37.049Z,36.33
2023-12-09T16:24:39.197Z,32.55
2023-12-09T16:27:41.522Z,35.08
2023-12-09T16:30:44.022Z,34.30
2023-12-09T16:33:48.492Z,32.60
2023-12-09T16:37:01.147Z,36.88
2023-12-09T16:40:04.143Z,40.97
2023-12-09T16:43:21.332Z,57.33
2023-12-09T16:46:24.198Z,46.95
2023-12-09T16:49:26.418Z,46.17
2023-12-09T16:52:28.907Z,44.65
2023-12-09T16:55:31.131Z,39.10
2023-12-09T16:58:33.322Z,28.60
2023-12-09T17:01:35.575Z,36.78
2023-12-09T17:04:37.969Z,45.50
2023-12-09T17:07:40.244Z,44.97
2023-12-09T17:10:42.331Z,37.78
2023-12-09T17:13:44.423Z,47.67
2023-12-09T17:16:46.783Z,41.22
2023-12-09T17:19:49.005Z,41.60
2023-12-09T17:22:51.278Z,37.28
2023-12-09T17:25:53.481Z,48.30
2023-12-09T17:28:55.540Z,43.35
2023-12-09T17:31:57.624Z,40.83
2023-12-09T17:34:59.880Z,34.42
2023-12-09T17:38:02.095Z,37.85
2023-12-09T17:41:06.418Z,41.08
2023-12-09T17:44:08.611Z,51.13
2023-12-09T17:47:10.786Z,47.67
2023-12-09T17:50:12.888Z,56.97
2023-12-09T17:53:18.032Z,50.17
2023-12-09T17:56:20.219Z,53.08
2023-12-09T17:59:22.310Z,40.83
2023-12-09T18:02:24.540Z,46.85
2023-12-09T18:05:26.894Z,40.65
2023-12-09T18:08:29.711Z,44.00
2023-12-09T18:11:31.885Z,50.72
2023-12-09T18:14:34.002Z,53.53
2023-12-09T18:17:36.209Z,51.40
2023-12-09T18:20:38.519Z,49.42
2023-12-09T18:23:40.761Z,49.08
2023-12-09T18:26:43.234Z,61.15
2023-12-09T18:29:45.518Z,46.78
2023-12-09T18:32:47.936Z,46.22
2023-12-09T18:35:50.215Z,44.15
2023-12-09T18:38:52.473Z,40.92
2023-12-09T18:41:55.297Z,50.38
2023-12-09T18:44:58.208Z,43.05
2023-12-09T18:48:00.494Z,49.58
2023-12-09T18:51:04.531Z,48.78
2023-12-09T18:54:06.725Z,47.90
2023-12-09T18:57:08.964Z,53.38
2023-12-09T19:00:12.230Z,56.13
2023-12-09T19:03:14.654Z,51.05
2023-12-09T19:06:16.929Z,43.70
2023-12-09T19:09:19.927Z,48.70
2023-12-09T19:12:23.361Z,51.50
2023-12-09T19:15:27.004Z,53.72
2023-12-09T19:18:29.356Z,47.40
2023-12-09T19:21:31.702Z,45.92
2023-12-09T19:24:34.331Z,56.53
2023-12-09T19:27:36.632Z,47.65
2023-12-09T19:30:38.889Z,49.38
2023-12-09T19:33:41.224Z,56.83
2023-12-09T19:36:45.231Z,45.13
2023-12-09T19:39:47.776Z,49.00
2023-12-09T19:42:51.272Z,57.90
2023-12-09T19:45:53.622Z,51.35
2023-12-09T19:48:56.926Z,53.15
2023-12-09T19:51:59.191Z,47.78
2023-12-09T19:55:01.564Z,56.85
2023-12-09T19:58:04.036Z,40.83
2023-12-09T20:01:06.614Z,46.15
2023-12-09T20:04:08.989Z,57.10
2023-12-09T20:07:11.428Z,64.63
2023-12-09T20:10:14.275Z,64.88
2023-12-09T20:13:17.133Z,65.15
2023-12-09T20:16:19.308Z,53.78
2023-12-09T20:19:24.780Z,58.88
2023-12-09T20:22:28.820Z,43.42
2023-12-09T20:25:31.065Z,54.55
2023-12-09T20:28:34.973Z,56.50
2023-12-09T20:31:37.074Z,58.50
2023-12-09T20:34:39.281Z,57.90
2023-12-09T20:37:41.719Z,59.33
2023-12-09T20:40:44.871Z,46.03
2023-12-09T20:43:48.861Z,58.55
2023-12-09T20:46:52.296Z,54.80
2023-12-09T20:49:54.686Z,51.30
2023-12-09T20:52:56.876Z,55.67
2023-12-09T20:55:59.056Z,54.83
2023-12-09T20:59:05.391Z,45.50
2023-12-09T21:02:07.540Z,58.00
2023-12-09T21:05:09.817Z,56.80
2023-12-09T21:08:11.982Z,46.53
2023-12-09T21:11:15.505Z,54.28
2023-12-09T21:14:17.743Z,49.47
2023-12-09T21:17:20.065Z,48.42
2023-12-09T21:20:22.133Z,44.60
2023-12-09T21:23:24.343Z,33.45
2023-12-09T21:26:26.610Z,36.65
2023-12-09T21:29:29.549Z,55.97
2023-12-09T21:32:31.779Z,45.95
2023-12-09T21:35:33.965Z,37.53
2023-12-09T21:38:38.218Z,38.92
2023-12-09T21:41:40.393Z,39.35
2023-12-09T21:44:46.216Z,50.50
2023-12-09T21:47:54.891Z,46.83
2023-12-09T21:50:59.217Z,39.83
2023-12-09T21:54:01.436Z,38.13
2023-12-09T21:57:03.775Z,35.90
2023-12-09T22:00:06.860Z,40.55
2023-12-09T22:03:09.260Z,33.17
2023-12-09T22:06:13.975Z,46.10
2023-12-09T22:09:16.354Z,42.70
2023-12-09T22:12:19.050Z,51.05
2023-12-09T22:15:21.265Z,62.05
2023-12-09T22:18:23.662Z,50.10
2023-12-09T22:21:26.171Z,48.53
2023-12-09T22:24:29.294Z,57.03
2023-12-09T22:27:31.414Z,49.83
2023-12-09T22:30:33.622Z,57.53
2023-12-09T22:33:37.425Z,50.70
2023-12-09T22:36:40.220Z,45.33
2023-12-09T22:39:43.232Z,48.45
2023-12-09T22:42:45.533Z,56.65
2023-12-09T22:45:47.747Z,47.67
2023-12-09T22:48:49.957Z,41.45
2023-12-09T22:51:52.184Z,40.85
2023-12-09T22:54:54.285Z,46.80
2023-12-09T22:57:56.581Z,42.33
2023-12-09T23:00:58.680Z,37.78
2023-12-09T23:04:04.381Z,38.83
2023-12-09T23:07:06.809Z,46.05
2023-12-09T23:10:09.144Z,40.95
2023-12-09T23:13:11.287Z,53.30
2023-12-09T23:16:13.902Z,45.47
2023-12-09T23:19:16.179Z,48.10
2023-12-09T23:22:18.401Z,46.92
2023-12-09T23:25:20.472Z,52.80
2023-12-09T23:28:23.630Z,42.47
2023-12-09T23:31:31.782Z,35.05
2023-12-09T23:34:41.332Z,50.40
2023-12-09T23:37:43.731Z,38.90
2023-12-09T23:40:45.941Z,38.78
2023-12-09T23:43:48.192Z,38.22
2023-12-09T23:46:50.329Z,45.20
2023-12-09T23:49:52.448Z,37.53
2023-12-09T23:52:54.493Z,37.70
2023-12-09T23:55:56.645Z,45.78
2023-12-09T23:58:59.361Z,38.83
